Relevés horaires Semmerzake (Belgique)


Relevés horaires à Semmerzake - Jeudi 10 Juin 2021
Heure UTC1 Température [°C] Vent [km/h] Hum. [%] Pres.4 [hPa] Visi. [Km] Nébu. [octa] Préc.5 [mm] Cond.
2m. Res. Ros. Dir.2 Vit. Moy. Raf.3
23:00 15.3 15.3 13.8 NNO 1.9 -- 1.9 91 1021(0.3/3h) 19 -- -- --
22:00 16.2 16.2 14.3 NNO 1.9 -- 3.7 89 1021.1(0.7/3h) 19 -- -- --
21:00 17.2 17.2 14.5 NNO 1.9 -- 9.3 84 1021.1(0.7/3h) 20 -- -- --
20:00 18.4 18.4 14.9 NNO 1.9 -- 5.6 80 1020.6(0.6/3h) 20 -- -- --
19:00 20.3 20.3 15.7 N 3.7 -- 9.3 75 1020.3(0.0/3h) 20 -- -- --
18:00 21.7 21.7 16.3 N 5.6 -- 11.1 71 1020.2(-0.5/3h) 20 -- -- --
17:00 24.7 24.7 15.3 O 3.7 -- 9.3 56 1019.8(-1.1/3h) 20 -- -- --
16:00 24.2 24.2 14.2 SO 3.7 -- 7.4 54 1020.3(-1.1/3h) 20 -- -- --
15:00 24.1 24.1 14.4 OSO 3.7 -- 9.3 55 1020.7(-0.9/3h) 20 -- -- --
14:00 24.1 24.1 13.6 NNO 1.9 -- 7.4 52 1021(-1.1/3h) 20 -- -- --
13:00 23.4 23.4 14.3 O 3.7 -- 9.3 57 1021.5(-0.7/3h) 20 -- -- --
12:00 23.5 23.5 15.7 OSO 3.7 -- 9.3 62 1021.6(-0.5/3h) 20 -- -- --
11:00 22.0 22.0 14.7 O 3.7 -- 7.4 63 1022.2(0.1/3h) 16 -- -- --
10:00 21.5 21.5 15.0 ONO 3.7 -- 9.3 67 1022.3(0.5/3h) 17 -- -- --
09:00 20.5 20.5 14.6 O 3.7 -- 9.3 69 1022.2(1.0/3h) 19 -- -- --
08:00 19.1 19.1 13.8 O 3.7 -- 7.4 71 1022.1(0.7/3h) 16 -- -- --
07:00 17.4 17.4 12.9 OSO 3.7 -- 7.4 75 1021.7(0.7/3h) 20 -- -- --
06:00 15.9 15.9 11.3 SO 5.6 -- 7.4 74 1021.2(0.0/3h) 16 -- -- --
05:00 14.3 14.3 9.4 SSO 3.7 -- 5.6 72 1021.5(-0.3/3h) 20 -- -- --
04:00 13.7 13.7 9.1 SO 3.7 -- 5.6 74 1021.2(-1.0/3h) 20 -- -- --
03:00 14.3 14.3 7.7 SSO 3.7 -- 7.4 64 1021.2(-0.9/3h) 20 -- -- --
02:00 14.3 14.3 6.1 NNO 1.9 -- 5.6 58 1021.7(-0.4/3h) 20 -- -- --
01:00 16.1 16.1 10.4 NNO 1.9 -- 7.4 69 1022.2(0.0/3h) 20 -- -- --
00:00 16.7 16.7 13.4 NNO 1.9 -- 5.6 81 1022.1(0.2/3h) 16 -- -- --

1 Coordinated Universal Time. Actuellement il est 11:00 locale et 10:00 UTC.

2 Le vent souffle depuis la direction indiquée vers la direction oposée.

3 Les rafales max. sont disponible 40 min après l'heure du relevé.

4 Pour les stations d'altitude (plus de 600m) le géopotentiel du niveau le plus proche de la pression obligatoire est indiqué.

5 Les stations disposant d'un diffuseur peuvent indiquer "trace". Cela signifie que des précipitations ont touchés le sol mais que la quantité est inférieure à 0.1 mm.

Récapitulatif de la journée
Température [°C] Vent [km/h] Ensoleillement4 [h] Precipitations totale5 [mm] Pression [Hpa]
Min1 Max.2 Moy.3 Max. Min Max.
13.3 25.6 0 11.1 0 h 0 min 0 1019.8 1022.3

1 Température minimale relevée entre 18:00 UTC la veille et 18:00 UTC le jour donné.

2 Température maximale relevée entre 06:00 UTC le jour donné et 06:00 UTC le lendemain.

3 Vent moyen de la journée basé sur les relevés horaires.

4 Ensoleillement en heures relevé entre 06:00 UTC la veille et 06:00 UTC le jour donné.

5 Précipitations totales tombées entre 06:00 UTC la jour donné et 06:00 UTC le lendemain.

Graphiques horaires